sensor_id;sensor_type;location;lat;lon;timestamp;P1;durP1;ratioP1;P2;durP2;ratioP2
84244;SDS011;74383;44.552;18.100;2024-02-04T00:00:30;90.53;;;45.35;;
84244;SDS011;74383;44.552;18.100;2024-02-04T00:02:55;82.93;;;43.67;;
84244;SDS011;74383;44.552;18.100;2024-02-04T00:05:21;81.25;;;41.97;;
84244;SDS011;74383;44.552;18.100;2024-02-04T00:07:47;86.32;;;46.10;;
84244;SDS011;74383;44.552;18.100;2024-02-04T00:10:12;90.85;;;44.50;;
84244;SDS011;74383;44.552;18.100;2024-02-04T00:12:40;91.25;;;45.53;;
84244;SDS011;74383;44.552;18.100;2024-02-04T00:15:06;83.80;;;44.88;;
84244;SDS011;74383;44.552;18.100;2024-02-04T00:17:32;84.95;;;43.22;;
84244;SDS011;74383;44.552;18.100;2024-02-04T00:19:59;83.43;;;43.47;;
84244;SDS011;74383;44.552;18.100;2024-02-04T00:22:26;80.15;;;42.00;;
84244;SDS011;74383;44.552;18.100;2024-02-04T00:24:52;90.85;;;45.33;;
84244;SDS011;74383;44.552;18.100;2024-02-04T00:27:18;88.05;;;43.47;;
84244;SDS011;74383;44.552;18.100;2024-02-04T00:29:44;87.00;;;42.83;;
84244;SDS011;74383;44.552;18.100;2024-02-04T00:32:09;85.35;;;41.83;;
84244;SDS011;74383;44.552;18.100;2024-02-04T00:34:35;78.22;;;43.25;;
84244;SDS011;74383;44.552;18.100;2024-02-04T00:37:01;91.47;;;43.70;;
84244;SDS011;74383;44.552;18.100;2024-02-04T00:39:27;86.38;;;43.42;;
84244;SDS011;74383;44.552;18.100;2024-02-04T00:41:53;84.05;;;43.67;;
84244;SDS011;74383;44.552;18.100;2024-02-04T00:44:18;86.68;;;43.00;;
84244;SDS011;74383;44.552;18.100;2024-02-04T00:46:44;79.63;;;43.30;;
84244;SDS011;74383;44.552;18.100;2024-02-04T00:49:10;80.07;;;42.72;;
84244;SDS011;74383;44.552;18.100;2024-02-04T00:51:35;76.28;;;41.05;;
84244;SDS011;74383;44.552;18.100;2024-02-04T00:54:01;83.55;;;43.28;;
84244;SDS011;74383;44.552;18.100;2024-02-04T00:56:27;85.05;;;41.50;;
84244;SDS011;74383;44.552;18.100;2024-02-04T00:58:52;75.93;;;41.15;;
84244;SDS011;74383;44.552;18.100;2024-02-04T01:01:18;73.60;;;39.42;;
84244;SDS011;74383;44.552;18.100;2024-02-04T01:03:44;77.53;;;40.35;;
84244;SDS011;74383;44.552;18.100;2024-02-04T01:06:10;80.45;;;39.83;;
84244;SDS011;74383;44.552;18.100;2024-02-04T01:08:35;80.43;;;41.50;;
84244;SDS011;74383;44.552;18.100;2024-02-04T01:11:03;82.53;;;41.10;;
84244;SDS011;74383;44.552;18.100;2024-02-04T01:13:32;73.03;;;38.85;;
84244;SDS011;74383;44.552;18.100;2024-02-04T01:15:57;77.25;;;39.58;;
84244;SDS011;74383;44.552;18.100;2024-02-04T01:18:23;73.10;;;38.60;;
84244;SDS011;74383;44.552;18.100;2024-02-04T01:20:49;73.00;;;40.10;;
84244;SDS011;74383;44.552;18.100;2024-02-04T01:23:15;76.43;;;39.97;;
84244;SDS011;74383;44.552;18.100;2024-02-04T01:25:43;71.82;;;39.05;;
84244;SDS011;74383;44.552;18.100;2024-02-04T01:28:08;82.30;;;41.13;;
84244;SDS011;74383;44.552;18.100;2024-02-04T01:30:34;84.50;;;42.33;;
84244;SDS011;74383;44.552;18.100;2024-02-04T01:33:00;79.80;;;42.22;;
84244;SDS011;74383;44.552;18.100;2024-02-04T01:35:25;81.45;;;43.25;;
84244;SDS011;74383;44.552;18.100;2024-02-04T01:37:51;84.72;;;41.17;;
84244;SDS011;74383;44.552;18.100;2024-02-04T01:40:18;70.20;;;39.97;;
84244;SDS011;74383;44.552;18.100;2024-02-04T01:42:44;72.75;;;38.72;;
84244;SDS011;74383;44.552;18.100;2024-02-04T01:45:09;74.30;;;38.15;;
84244;SDS011;74383;44.552;18.100;2024-02-04T01:47:35;65.03;;;35.90;;
84244;SDS011;74383;44.552;18.100;2024-02-04T01:50:01;67.63;;;38.72;;
84244;SDS011;74383;44.552;18.100;2024-02-04T01:52:29;68.68;;;38.60;;
84244;SDS011;74383;44.552;18.100;2024-02-04T01:54:56;89.18;;;41.97;;
84244;SDS011;74383;44.552;18.100;2024-02-04T01:57:23;78.63;;;40.72;;
84244;SDS011;74383;44.552;18.100;2024-02-04T01:59:49;75.78;;;41.70;;
84244;SDS011;74383;44.552;18.100;2024-02-04T02:02:17;74.55;;;39.53;;
84244;SDS011;74383;44.552;18.100;2024-02-04T02:04:43;81.95;;;40.47;;
84244;SDS011;74383;44.552;18.100;2024-02-04T02:07:09;74.60;;;40.47;;
84244;SDS011;74383;44.552;18.100;2024-02-04T02:09:35;69.53;;;38.35;;
84244;SDS011;74383;44.552;18.100;2024-02-04T02:14:28;78.82;;;40.15;;
84244;SDS011;74383;44.552;18.100;2024-02-04T02:16:57;71.95;;;39.10;;
84244;SDS011;74383;44.552;18.100;2024-02-04T02:20:32;80.28;;;42.95;;
84244;SDS011;74383;44.552;18.100;2024-02-04T02:25:12;83.90;;;42.53;;
84244;SDS011;74383;44.552;18.100;2024-02-04T02:27:51;80.53;;;41.70;;
84244;SDS011;74383;44.552;18.100;2024-02-04T02:30:17;79.50;;;40.83;;
84244;SDS011;74383;44.552;18.100;2024-02-04T02:32:43;75.53;;;40.72;;
84244;SDS011;74383;44.552;18.100;2024-02-04T02:35:11;71.47;;;39.00;;
84244;SDS011;74383;44.552;18.100;2024-02-04T02:37:46;61.38;;;36.55;;
84244;SDS011;74383;44.552;18.100;2024-02-04T02:42:57;58.08;;;34.63;;
84244;SDS011;74383;44.552;18.100;2024-02-04T02:45:28;71.63;;;36.92;;
84244;SDS011;74383;44.552;18.100;2024-02-04T02:47:54;61.10;;;36.10;;
84244;SDS011;74383;44.552;18.100;2024-02-04T02:50:20;58.78;;;35.08;;
84244;SDS011;74383;44.552;18.100;2024-02-04T02:52:46;69.82;;;36.15;;
84244;SDS011;74383;44.552;18.100;2024-02-04T02:55:12;63.38;;;36.20;;
84244;SDS011;74383;44.552;18.100;2024-02-04T02:57:38;62.20;;;35.63;;
84244;SDS011;74383;44.552;18.100;2024-02-04T03:00:03;59.50;;;34.67;;
84244;SDS011;74383;44.552;18.100;2024-02-04T03:02:31;68.25;;;35.03;;
84244;SDS011;74383;44.552;18.100;2024-02-04T03:04:57;66.13;;;34.92;;
84244;SDS011;74383;44.552;18.100;2024-02-04T03:07:23;73.22;;;36.75;;
84244;SDS011;74383;44.552;18.100;2024-02-04T03:09:49;71.07;;;37.50;;
84244;SDS011;74383;44.552;18.100;2024-02-04T03:12:14;71.10;;;38.15;;
84244;SDS011;74383;44.552;18.100;2024-02-04T03:14:40;74.43;;;39.10;;
84244;SDS011;74383;44.552;18.100;2024-02-04T03:17:06;67.45;;;39.28;;
84244;SDS011;74383;44.552;18.100;2024-02-04T03:19:31;72.45;;;38.47;;
84244;SDS011;74383;44.552;18.100;2024-02-04T03:21:57;73.07;;;38.58;;
84244;SDS011;74383;44.552;18.100;2024-02-04T03:24:22;62.80;;;36.53;;
84244;SDS011;74383;44.552;18.100;2024-02-04T03:26:48;66.32;;;37.05;;
84244;SDS011;74383;44.552;18.100;2024-02-04T03:29:14;70.50;;;39.08;;
84244;SDS011;74383;44.552;18.100;2024-02-04T03:31:39;68.00;;;37.35;;
84244;SDS011;74383;44.552;18.100;2024-02-04T03:34:05;67.95;;;37.05;;
84244;SDS011;74383;44.552;18.100;2024-02-04T03:36:31;69.32;;;37.60;;
84244;SDS011;74383;44.552;18.100;2024-02-04T03:38:57;73.85;;;38.67;;
84244;SDS011;74383;44.552;18.100;2024-02-04T03:41:23;69.80;;;38.75;;
84244;SDS011;74383;44.552;18.100;2024-02-04T03:43:48;72.10;;;38.10;;
84244;SDS011;74383;44.552;18.100;2024-02-04T03:46:15;70.30;;;37.45;;
84244;SDS011;74383;44.552;18.100;2024-02-04T03:48:41;66.78;;;35.38;;
84244;SDS011;74383;44.552;18.100;2024-02-04T03:51:06;66.30;;;35.88;;
84244;SDS011;74383;44.552;18.100;2024-02-04T03:53:33;65.90;;;36.63;;
84244;SDS011;74383;44.552;18.100;2024-02-04T03:55:58;68.57;;;36.38;;
84244;SDS011;74383;44.552;18.100;2024-02-04T03:58:24;68.65;;;35.67;;
84244;SDS011;74383;44.552;18.100;2024-02-04T04:00:57;59.58;;;31.25;;
84244;SDS011;74383;44.552;18.100;2024-02-04T04:03:23;57.20;;;30.77;;
84244;SDS011;74383;44.552;18.100;2024-02-04T04:05:49;55.40;;;30.80;;
84244;SDS011;74383;44.552;18.100;2024-02-04T04:08:14;55.25;;;29.88;;
84244;SDS011;74383;44.552;18.100;2024-02-04T04:10:40;60.28;;;32.65;;
84244;SDS011;74383;44.552;18.100;2024-02-04T04:13:05;58.38;;;32.80;;
84244;SDS011;74383;44.552;18.100;2024-02-04T04:15:31;63.60;;;35.75;;
84244;SDS011;74383;44.552;18.100;2024-02-04T04:17:57;63.50;;;35.38;;
84244;SDS011;74383;44.552;18.100;2024-02-04T04:20:22;58.92;;;32.35;;
84244;SDS011;74383;44.552;18.100;2024-02-04T04:22:48;57.22;;;31.15;;
84244;SDS011;74383;44.552;18.100;2024-02-04T04:25:13;57.92;;;32.20;;
84244;SDS011;74383;44.552;18.100;2024-02-04T04:27:39;60.38;;;33.55;;
84244;SDS011;74383;44.552;18.100;2024-02-04T04:30:05;60.78;;;34.03;;
84244;SDS011;74383;44.552;18.100;2024-02-04T04:32:31;54.03;;;32.25;;
84244;SDS011;74383;44.552;18.100;2024-02-04T04:34:57;63.28;;;34.63;;
84244;SDS011;74383;44.552;18.100;2024-02-04T04:37:23;63.95;;;37.28;;
84244;SDS011;74383;44.552;18.100;2024-02-04T04:39:48;73.22;;;39.15;;
84244;SDS011;74383;44.552;18.100;2024-02-04T04:42:14;66.88;;;37.05;;
84244;SDS011;74383;44.552;18.100;2024-02-04T04:44:40;66.95;;;36.72;;
84244;SDS011;74383;44.552;18.100;2024-02-04T04:47:05;63.70;;;33.75;;
84244;SDS011;74383;44.552;18.100;2024-02-04T04:49:31;64.53;;;36.22;;
84244;SDS011;74383;44.552;18.100;2024-02-04T04:51:56;57.08;;;34.67;;
84244;SDS011;74383;44.552;18.100;2024-02-04T04:54:22;65.90;;;34.42;;
84244;SDS011;74383;44.552;18.100;2024-02-04T04:56:48;57.65;;;33.88;;
84244;SDS011;74383;44.552;18.100;2024-02-04T04:59:14;68.75;;;38.63;;
84244;SDS011;74383;44.552;18.100;2024-02-04T05:01:47;62.70;;;36.70;;
84244;SDS011;74383;44.552;18.100;2024-02-04T05:04:14;65.88;;;38.15;;
84244;SDS011;74383;44.552;18.100;2024-02-04T05:06:40;78.13;;;41.30;;
84244;SDS011;74383;44.552;18.100;2024-02-04T05:09:06;73.97;;;41.15;;
84244;SDS011;74383;44.552;18.100;2024-02-04T05:11:32;73.70;;;39.75;;
84244;SDS011;74383;44.552;18.100;2024-02-04T05:13:57;54.30;;;29.25;;
84244;SDS011;74383;44.552;18.100;2024-02-04T05:16:23;56.70;;;30.63;;
84244;SDS011;74383;44.552;18.100;2024-02-04T05:18:49;63.33;;;33.80;;
84244;SDS011;74383;44.552;18.100;2024-02-04T05:21:14;59.72;;;34.25;;
84244;SDS011;74383;44.552;18.100;2024-02-04T05:23:40;69.20;;;37.40;;
84244;SDS011;74383;44.552;18.100;2024-02-04T05:26:05;62.13;;;32.00;;
84244;SDS011;74383;44.552;18.100;2024-02-04T05:28:32;59.00;;;32.92;;
84244;SDS011;74383;44.552;18.100;2024-02-04T05:30:57;59.10;;;31.00;;
84244;SDS011;74383;44.552;18.100;2024-02-04T05:33:23;62.53;;;31.92;;
84244;SDS011;74383;44.552;18.100;2024-02-04T05:35:49;48.33;;;27.33;;
84244;SDS011;74383;44.552;18.100;2024-02-04T05:38:15;50.65;;;28.88;;
84244;SDS011;74383;44.552;18.100;2024-02-04T05:40:41;51.45;;;27.88;;
84244;SDS011;74383;44.552;18.100;2024-02-04T05:43:07;45.53;;;27.75;;
84244;SDS011;74383;44.552;18.100;2024-02-04T05:45:36;54.78;;;30.02;;
84244;SDS011;74383;44.552;18.100;2024-02-04T05:48:02;55.88;;;29.05;;
84244;SDS011;74383;44.552;18.100;2024-02-04T05:50:28;49.75;;;28.33;;
84244;SDS011;74383;44.552;18.100;2024-02-04T05:52:54;55.08;;;28.98;;
84244;SDS011;74383;44.552;18.100;2024-02-04T05:55:19;53.67;;;30.65;;
84244;SDS011;74383;44.552;18.100;2024-02-04T05:57:45;61.92;;;33.22;;
84244;SDS011;74383;44.552;18.100;2024-02-04T06:00:11;65.47;;;37.20;;
84244;SDS011;74383;44.552;18.100;2024-02-04T06:02:37;70.75;;;38.67;;
84244;SDS011;74383;44.552;18.100;2024-02-04T06:05:03;69.47;;;37.95;;
84244;SDS011;74383;44.552;18.100;2024-02-04T06:07:29;59.97;;;33.78;;
84244;SDS011;74383;44.552;18.100;2024-02-04T06:09:54;62.58;;;34.63;;
84244;SDS011;74383;44.552;18.100;2024-02-04T06:12:24;57.75;;;32.40;;
84244;SDS011;74383;44.552;18.100;2024-02-04T06:14:50;65.05;;;36.90;;
84244;SDS011;74383;44.552;18.100;2024-02-04T06:17:15;60.88;;;36.53;;
84244;SDS011;74383;44.552;18.100;2024-02-04T06:19:41;82.88;;;45.53;;
84244;SDS011;74383;44.552;18.100;2024-02-04T06:22:06;93.72;;;48.85;;
84244;SDS011;74383;44.552;18.100;2024-02-04T06:24:32;94.60;;;44.67;;
84244;SDS011;74383;44.552;18.100;2024-02-04T06:26:57;91.10;;;42.50;;
84244;SDS011;74383;44.552;18.100;2024-02-04T06:29:23;88.13;;;44.40;;
84244;SDS011;74383;44.552;18.100;2024-02-04T06:31:49;86.80;;;46.20;;
84244;SDS011;74383;44.552;18.100;2024-02-04T06:34:14;68.32;;;36.45;;
84244;SDS011;74383;44.552;18.100;2024-02-04T06:36:43;76.90;;;41.40;;
84244;SDS011;74383;44.552;18.100;2024-02-04T06:39:11;74.28;;;36.75;;
84244;SDS011;74383;44.552;18.100;2024-02-04T06:41:38;74.47;;;38.17;;
84244;SDS011;74383;44.552;18.100;2024-02-04T06:44:03;66.93;;;35.80;;
84244;SDS011;74383;44.552;18.100;2024-02-04T06:46:29;63.03;;;34.28;;
84244;SDS011;74383;44.552;18.100;2024-02-04T06:48:55;82.53;;;42.75;;
84244;SDS011;74383;44.552;18.100;2024-02-04T06:51:21;79.57;;;40.03;;
84244;SDS011;74383;44.552;18.100;2024-02-04T06:53:46;88.35;;;43.58;;
84244;SDS011;74383;44.552;18.100;2024-02-04T06:56:12;86.15;;;41.75;;
84244;SDS011;74383;44.552;18.100;2024-02-04T06:58:38;91.63;;;43.70;;
84244;SDS011;74383;44.552;18.100;2024-02-04T07:01:04;74.13;;;39.92;;
84244;SDS011;74383;44.552;18.100;2024-02-04T07:03:30;101.57;;;48.00;;
84244;SDS011;74383;44.552;18.100;2024-02-04T07:05:56;102.90;;;52.00;;
84244;SDS011;74383;44.552;18.100;2024-02-04T07:08:22;99.85;;;50.97;;
84244;SDS011;74383;44.552;18.100;2024-02-04T07:10:48;106.63;;;52.75;;
84244;SDS011;74383;44.552;18.100;2024-02-04T07:13:14;105.72;;;55.47;;
84244;SDS011;74383;44.552;18.100;2024-02-04T07:15:40;115.93;;;55.22;;
84244;SDS011;74383;44.552;18.100;2024-02-04T07:18:05;118.78;;;56.10;;
84244;SDS011;74383;44.552;18.100;2024-02-04T07:20:31;117.65;;;53.78;;
84244;SDS011;74383;44.552;18.100;2024-02-04T07:22:56;126.05;;;47.67;;
84244;SDS011;74383;44.552;18.100;2024-02-04T07:25:22;109.47;;;43.85;;
84244;SDS011;74383;44.552;18.100;2024-02-04T07:27:48;91.47;;;42.33;;
84244;SDS011;74383;44.552;18.100;2024-02-04T07:30:14;90.75;;;43.63;;
84244;SDS011;74383;44.552;18.100;2024-02-04T07:32:39;97.80;;;48.55;;
84244;SDS011;74383;44.552;18.100;2024-02-04T07:35:05;160.02;;;75.55;;
84244;SDS011;74383;44.552;18.100;2024-02-04T07:37:31;154.02;;;72.18;;
84244;SDS011;74383;44.552;18.100;2024-02-04T07:39:57;163.38;;;71.63;;
84244;SDS011;74383;44.552;18.100;2024-02-04T07:42:23;125.78;;;52.00;;
84244;SDS011;74383;44.552;18.100;2024-02-04T07:44:49;107.25;;;47.58;;
84244;SDS011;74383;44.552;18.100;2024-02-04T07:47:14;110.90;;;47.55;;
84244;SDS011;74383;44.552;18.100;2024-02-04T07:49:41;115.57;;;52.50;;
84244;SDS011;74383;44.552;18.100;2024-02-04T07:52:06;117.63;;;51.92;;
84244;SDS011;74383;44.552;18.100;2024-02-04T07:54:32;125.93;;;56.17;;
84244;SDS011;74383;44.552;18.100;2024-02-04T07:56:58;121.05;;;57.78;;
84244;SDS011;74383;44.552;18.100;2024-02-04T07:59:23;118.78;;;57.13;;
84244;SDS011;74383;44.552;18.100;2024-02-04T08:01:49;129.88;;;67.57;;
84244;SDS011;74383;44.552;18.100;2024-02-04T08:04:14;136.38;;;69.10;;
84244;SDS011;74383;44.552;18.100;2024-02-04T08:06:40;136.85;;;70.47;;
84244;SDS011;74383;44.552;18.100;2024-02-04T08:09:06;130.98;;;70.78;;
84244;SDS011;74383;44.552;18.100;2024-02-04T08:11:31;111.65;;;56.30;;
84244;SDS011;74383;44.552;18.100;2024-02-04T08:13:57;107.47;;;59.30;;
84244;SDS011;74383;44.552;18.100;2024-02-04T08:16:23;111.60;;;61.63;;
84244;SDS011;74383;44.552;18.100;2024-02-04T08:18:48;113.63;;;57.53;;
84244;SDS011;74383;44.552;18.100;2024-02-04T08:21:14;101.65;;;55.35;;
84244;SDS011;74383;44.552;18.100;2024-02-04T08:23:39;102.70;;;56.15;;
84244;SDS011;74383;44.552;18.100;2024-02-04T08:26:05;118.78;;;63.08;;
84244;SDS011;74383;44.552;18.100;2024-02-04T08:28:31;121.95;;;66.60;;
84244;SDS011;74383;44.552;18.100;2024-02-04T08:30:56;130.70;;;67.75;;
84244;SDS011;74383;44.552;18.100;2024-02-04T08:33:22;127.88;;;70.30;;
84244;SDS011;74383;44.552;18.100;2024-02-04T08:35:48;132.95;;;75.72;;
84244;SDS011;74383;44.552;18.100;2024-02-04T08:38:14;126.53;;;68.53;;
84244;SDS011;74383;44.552;18.100;2024-02-04T08:40:39;120.47;;;66.75;;
84244;SDS011;74383;44.552;18.100;2024-02-04T08:43:05;107.03;;;56.42;;
84244;SDS011;74383;44.552;18.100;2024-02-04T08:45:31;114.10;;;58.30;;
84244;SDS011;74383;44.552;18.100;2024-02-04T08:47:56;124.13;;;64.35;;
84244;SDS011;74383;44.552;18.100;2024-02-04T08:50:22;130.48;;;70.72;;
84244;SDS011;74383;44.552;18.100;2024-02-04T08:52:47;124.80;;;67.18;;
84244;SDS011;74383;44.552;18.100;2024-02-04T08:55:13;109.93;;;62.60;;
84244;SDS011;74383;44.552;18.100;2024-02-04T08:57:39;126.32;;;66.50;;
84244;SDS011;74383;44.552;18.100;2024-02-04T09:00:05;120.10;;;67.85;;
84244;SDS011;74383;44.552;18.100;2024-02-04T09:02:34;114.95;;;63.90;;
84244;SDS011;74383;44.552;18.100;2024-02-04T09:05:00;114.65;;;64.75;;
84244;SDS011;74383;44.552;18.100;2024-02-04T09:07:26;119.63;;;66.00;;
84244;SDS011;74383;44.552;18.100;2024-02-04T09:09:51;113.50;;;67.05;;
84244;SDS011;74383;44.552;18.100;2024-02-04T09:12:17;107.05;;;62.00;;
84244;SDS011;74383;44.552;18.100;2024-02-04T09:14:43;111.13;;;62.95;;
84244;SDS011;74383;44.552;18.100;2024-02-04T09:17:08;113.40;;;63.42;;
84244;SDS011;74383;44.552;18.100;2024-02-04T09:19:35;108.45;;;64.30;;
84244;SDS011;74383;44.552;18.100;2024-02-04T09:22:01;104.35;;;59.53;;
84244;SDS011;74383;44.552;18.100;2024-02-04T09:24:27;99.15;;;56.75;;
84244;SDS011;74383;44.552;18.100;2024-02-04T09:26:53;86.15;;;51.15;;
84244;SDS011;74383;44.552;18.100;2024-02-04T09:29:19;77.47;;;47.10;;
84244;SDS011;74383;44.552;18.100;2024-02-04T09:31:45;76.47;;;47.17;;
84244;SDS011;74383;44.552;18.100;2024-02-04T09:34:11;76.53;;;45.05;;
84244;SDS011;74383;44.552;18.100;2024-02-04T09:36:36;72.45;;;43.60;;
84244;SDS011;74383;44.552;18.100;2024-02-04T09:39:02;69.45;;;42.97;;
84244;SDS011;74383;44.552;18.100;2024-02-04T09:41:28;79.97;;;44.85;;
84244;SDS011;74383;44.552;18.100;2024-02-04T09:43:55;82.28;;;49.92;;
84244;SDS011;74383;44.552;18.100;2024-02-04T09:46:22;86.95;;;51.88;;
84244;SDS011;74383;44.552;18.100;2024-02-04T09:48:49;87.10;;;51.88;;
84244;SDS011;74383;44.552;18.100;2024-02-04T09:51:16;86.18;;;50.88;;
84244;SDS011;74383;44.552;18.100;2024-02-04T09:53:45;88.00;;;53.58;;
84244;SDS011;74383;44.552;18.100;2024-02-04T09:56:15;84.75;;;53.03;;
84244;SDS011;74383;44.552;18.100;2024-02-04T09:58:41;89.20;;;52.00;;
84244;SDS011;74383;44.552;18.100;2024-02-04T12:25:23;25.77;;;19.05;;
84244;SDS011;74383;44.552;18.100;2024-02-04T12:27:52;24.27;;;17.25;;
84244;SDS011;74383;44.552;18.100;2024-02-04T12:30:17;25.92;;;17.92;;
84244;SDS011;74383;44.552;18.100;2024-02-04T12:32:43;28.45;;;17.08;;
84244;SDS011;74383;44.552;18.100;2024-02-04T12:35:18;25.58;;;16.77;;
84244;SDS011;74383;44.552;18.100;2024-02-04T12:37:50;23.95;;;16.13;;
84244;SDS011;74383;44.552;18.100;2024-02-04T12:40:21;24.88;;;17.38;;
84244;SDS011;74383;44.552;18.100;2024-02-04T12:42:52;24.65;;;16.90;;
84244;SDS011;74383;44.552;18.100;2024-02-04T12:47:51;22.90;;;16.60;;
84244;SDS011;74383;44.552;18.100;2024-02-04T12:50:17;23.83;;;16.27;;
84244;SDS011;74383;44.552;18.100;2024-02-04T12:52:45;20.45;;;16.05;;
84244;SDS011;74383;44.552;18.100;2024-02-04T12:55:24;19.75;;;14.48;;
84244;SDS011;74383;44.552;18.100;2024-02-04T12:58:09;17.80;;;13.30;;
84244;SDS011;74383;44.552;18.100;2024-02-04T13:00:42;17.70;;;12.95;;
84244;SDS011;74383;44.552;18.100;2024-02-04T13:03:08;19.77;;;13.15;;
84244;SDS011;74383;44.552;18.100;2024-02-04T13:05:34;17.25;;;12.10;;
84244;SDS011;74383;44.552;18.100;2024-02-04T13:08:01;16.58;;;13.27;;
84244;SDS011;74383;44.552;18.100;2024-02-04T13:10:30;18.65;;;13.70;;
84244;SDS011;74383;44.552;18.100;2024-02-04T13:12:59;17.40;;;13.60;;
84244;SDS011;74383;44.552;18.100;2024-02-04T13:15:28;19.45;;;13.57;;
84244;SDS011;74383;44.552;18.100;2024-02-04T13:17:55;19.02;;;13.73;;
84244;SDS011;74383;44.552;18.100;2024-02-04T13:20:21;18.25;;;13.43;;
84244;SDS011;74383;44.552;18.100;2024-02-04T13:22:47;20.38;;;14.38;;
84244;SDS011;74383;44.552;18.100;2024-02-04T13:25:13;20.83;;;15.07;;
84244;SDS011;74383;44.552;18.100;2024-02-04T13:27:39;18.52;;;13.65;;
84244;SDS011;74383;44.552;18.100;2024-02-04T13:30:06;17.45;;;12.27;;
84244;SDS011;74383;44.552;18.100;2024-02-04T13:32:40;17.25;;;13.30;;
84244;SDS011;74383;44.552;18.100;2024-02-04T13:35:07;17.13;;;11.55;;
84244;SDS011;74383;44.552;18.100;2024-02-04T13:37:36;19.33;;;12.65;;
84244;SDS011;74383;44.552;18.100;2024-02-04T13:40:07;19.02;;;12.55;;
84244;SDS011;74383;44.552;18.100;2024-02-04T13:42:34;13.18;;;10.20;;
84244;SDS011;74383;44.552;18.100;2024-02-04T13:45:00;16.88;;;11.57;;
84244;SDS011;74383;44.552;18.100;2024-02-04T13:47:27;17.33;;;12.10;;
84244;SDS011;74383;44.552;18.100;2024-02-04T13:49:52;26.65;;;17.95;;
84244;SDS011;74383;44.552;18.100;2024-02-04T13:52:18;22.98;;;16.20;;
84244;SDS011;74383;44.552;18.100;2024-02-04T13:54:44;22.75;;;16.38;;
84244;SDS011;74383;44.552;18.100;2024-02-04T13:57:09;24.25;;;16.60;;
84244;SDS011;74383;44.552;18.100;2024-02-04T13:59:36;23.30;;;16.92;;
84244;SDS011;74383;44.552;18.100;2024-02-04T14:02:01;26.80;;;17.30;;
84244;SDS011;74383;44.552;18.100;2024-02-04T14:04:28;30.52;;;17.85;;
84244;SDS011;74383;44.552;18.100;2024-02-04T14:06:54;24.38;;;16.00;;
84244;SDS011;74383;44.552;18.100;2024-02-04T14:09:20;21.65;;;14.95;;
84244;SDS011;74383;44.552;18.100;2024-02-04T14:11:46;27.02;;;17.02;;
84244;SDS011;74383;44.552;18.100;2024-02-04T14:14:11;26.85;;;16.48;;
84244;SDS011;74383;44.552;18.100;2024-02-04T14:16:38;16.42;;;10.68;;
84244;SDS011;74383;44.552;18.100;2024-02-04T14:19:04;16.15;;;11.00;;
84244;SDS011;74383;44.552;18.100;2024-02-04T14:21:30;16.70;;;11.27;;
84244;SDS011;74383;44.552;18.100;2024-02-04T14:23:55;16.40;;;11.63;;
84244;SDS011;74383;44.552;18.100;2024-02-04T14:26:21;19.17;;;12.05;;
84244;SDS011;74383;44.552;18.100;2024-02-04T14:28:47;17.35;;;11.25;;
84244;SDS011;74383;44.552;18.100;2024-02-04T14:31:13;18.00;;;11.48;;
84244;SDS011;74383;44.552;18.100;2024-02-04T14:33:39;17.50;;;11.10;;
84244;SDS011;74383;44.552;18.100;2024-02-04T14:36:06;14.82;;;10.02;;
84244;SDS011;74383;44.552;18.100;2024-02-04T14:38:32;16.73;;;10.70;;
84244;SDS011;74383;44.552;18.100;2024-02-04T14:40:58;17.92;;;11.38;;
84244;SDS011;74383;44.552;18.100;2024-02-04T14:43:24;15.82;;;11.48;;
84244;SDS011;74383;44.552;18.100;2024-02-04T14:45:50;19.08;;;12.82;;
84244;SDS011;74383;44.552;18.100;2024-02-04T14:48:16;22.38;;;14.18;;
84244;SDS011;74383;44.552;18.100;2024-02-04T14:50:42;24.63;;;15.48;;
84244;SDS011;74383;44.552;18.100;2024-02-04T14:53:09;25.38;;;16.15;;
84244;SDS011;74383;44.552;18.100;2024-02-04T14:55:34;35.80;;;19.95;;
84244;SDS011;74383;44.552;18.100;2024-02-04T14:58:00;37.70;;;21.02;;
84244;SDS011;74383;44.552;18.100;2024-02-04T15:00:25;30.95;;;19.02;;
84244;SDS011;74383;44.552;18.100;2024-02-04T15:02:53;32.78;;;19.88;;
84244;SDS011;74383;44.552;18.100;2024-02-04T15:05:19;34.97;;;19.58;;
84244;SDS011;74383;44.552;18.100;2024-02-04T15:07:47;36.22;;;21.42;;
84244;SDS011;74383;44.552;18.100;2024-02-04T15:10:13;38.50;;;21.63;;
84244;SDS011;74383;44.552;18.100;2024-02-04T15:12:39;36.45;;;22.20;;
84244;SDS011;74383;44.552;18.100;2024-02-04T15:15:05;41.65;;;23.17;;
84244;SDS011;74383;44.552;18.100;2024-02-04T15:17:32;40.10;;;24.95;;
84244;SDS011;74383;44.552;18.100;2024-02-04T15:19:59;43.25;;;26.63;;
84244;SDS011;74383;44.552;18.100;2024-02-04T15:22:25;39.17;;;25.70;;
84244;SDS011;74383;44.552;18.100;2024-02-04T15:24:51;46.70;;;28.77;;
84244;SDS011;74383;44.552;18.100;2024-02-04T15:27:19;46.65;;;28.95;;
84244;SDS011;74383;44.552;18.100;2024-02-04T15:29:47;43.33;;;28.15;;
84244;SDS011;74383;44.552;18.100;2024-02-04T15:32:14;40.38;;;26.25;;
84244;SDS011;74383;44.552;18.100;2024-02-04T15:34:43;40.65;;;26.73;;
84244;SDS011;74383;44.552;18.100;2024-02-04T15:37:08;47.90;;;28.25;;
84244;SDS011;74383;44.552;18.100;2024-02-04T15:39:35;39.60;;;24.63;;
84244;SDS011;74383;44.552;18.100;2024-02-04T15:42:04;44.08;;;25.45;;
84244;SDS011;74383;44.552;18.100;2024-02-04T15:44:32;36.88;;;23.17;;
84244;SDS011;74383;44.552;18.100;2024-02-04T15:47:01;35.80;;;23.42;;
84244;SDS011;74383;44.552;18.100;2024-02-04T15:49:30;39.50;;;24.95;;
84244;SDS011;74383;44.552;18.100;2024-02-04T15:51:57;38.88;;;24.30;;
84244;SDS011;74383;44.552;18.100;2024-02-04T15:54:23;39.35;;;25.00;;
84244;SDS011;74383;44.552;18.100;2024-02-04T15:57:02;43.38;;;24.65;;
84244;SDS011;74383;44.552;18.100;2024-02-04T15:59:50;85.07;;;39.97;;
84244;SDS011;74383;44.552;18.100;2024-02-04T16:02:19;57.00;;;29.50;;
84244;SDS011;74383;44.552;18.100;2024-02-04T16:04:44;41.63;;;25.48;;
84244;SDS011;74383;44.552;18.100;2024-02-04T16:07:11;42.97;;;24.55;;
84244;SDS011;74383;44.552;18.100;2024-02-04T16:09:38;48.40;;;26.52;;
84244;SDS011;74383;44.552;18.100;2024-02-04T16:12:08;42.35;;;24.23;;
84244;SDS011;74383;44.552;18.100;2024-02-04T16:14:35;41.85;;;24.27;;
84244;SDS011;74383;44.552;18.100;2024-02-04T16:17:02;55.97;;;29.13;;
84244;SDS011;74383;44.552;18.100;2024-02-04T16:19:30;53.03;;;28.90;;
84244;SDS011;74383;44.552;18.100;2024-02-04T16:21:56;70.25;;;37.25;;
84244;SDS011;74383;44.552;18.100;2024-02-04T16:24:22;75.38;;;38.83;;
84244;SDS011;74383;44.552;18.100;2024-02-04T16:26:48;68.40;;;36.33;;
84244;SDS011;74383;44.552;18.100;2024-02-04T16:29:13;56.20;;;32.35;;
84244;SDS011;74383;44.552;18.100;2024-02-04T16:31:39;46.88;;;27.10;;
84244;SDS011;74383;44.552;18.100;2024-02-04T16:34:05;47.75;;;27.48;;
84244;SDS011;74383;44.552;18.100;2024-02-04T16:36:31;52.33;;;30.15;;